createdAt,value
2019-01-29T00:01:38.922Z,40.40
2019-01-29T00:04:09.431Z,47.27
2019-01-29T00:06:40.109Z,52.13
2019-01-29T00:09:11.669Z,53.53
2019-01-29T00:11:42.486Z,51.03
2019-01-29T00:14:13.677Z,51.60
2019-01-29T00:16:44.591Z,43.90
2019-01-29T00:19:15.423Z,44.23
2019-01-29T00:21:46.112Z,49.43
2019-01-29T00:24:16.795Z,47.77
2019-01-29T00:26:47.596Z,49.53
2019-01-29T00:29:18.337Z,51.80
2019-01-29T00:31:49.094Z,56.57
2019-01-29T00:34:19.828Z,58.77
2019-01-29T00:36:50.655Z,54.20
2019-01-29T00:39:21.407Z,52.20
2019-01-29T00:41:52.159Z,49.03
2019-01-29T00:44:22.673Z,50.20
2019-01-29T00:46:53.443Z,51.73
2019-01-29T00:49:24.167Z,54.93
2019-01-29T00:51:54.739Z,58.73
2019-01-29T00:54:25.373Z,58.97
2019-01-29T00:56:55.980Z,58.53
2019-01-29T00:59:26.569Z,57.20
2019-01-29T01:01:57.166Z,57.73
2019-01-29T01:04:27.659Z,52.93
2019-01-29T01:07:17.218Z,56.33
2019-01-29T01:09:47.761Z,50.33
2019-01-29T01:12:18.537Z,49.40
2019-01-29T01:14:49.152Z,49.33
2019-01-29T01:17:20.001Z,48.00
2019-01-29T01:19:50.620Z,50.00
2019-01-29T01:22:21.205Z,47.93
2019-01-29T01:24:51.728Z,47.03
2019-01-29T01:27:22.385Z,48.23
2019-01-29T01:29:52.958Z,48.00
2019-01-29T01:32:23.475Z,50.58
2019-01-29T01:34:54.175Z,51.10
2019-01-29T01:37:24.991Z,49.10
2019-01-29T01:39:55.513Z,46.03
2019-01-29T01:42:26.132Z,44.23
2019-01-29T01:44:56.700Z,48.77
2019-01-29T01:47:27.302Z,47.87
2019-01-29T01:49:58.128Z,46.37
2019-01-29T01:52:28.839Z,47.27
2019-01-29T01:54:59.492Z,47.57
2019-01-29T01:57:30.229Z,44.07
2019-01-29T02:00:01.117Z,47.90
2019-01-29T02:02:31.639Z,52.27
2019-01-29T02:05:02.159Z,53.40
2019-01-29T02:07:32.926Z,53.90
2019-01-29T02:10:03.557Z,56.37
2019-01-29T02:12:34.216Z,58.43
2019-01-29T02:15:05.493Z,52.80
2019-01-29T02:17:36.171Z,52.93
2019-01-29T02:20:08.032Z,52.23
2019-01-29T02:22:38.667Z,49.30
2019-01-29T02:25:09.378Z,52.50
2019-01-29T02:27:40.160Z,49.17
2019-01-29T02:30:14.465Z,50.50
2019-01-29T02:32:45.279Z,52.10
2019-01-29T02:35:16.409Z,49.97
2019-01-29T02:37:47.283Z,54.97
2019-01-29T02:40:23.580Z,55.90
2019-01-29T02:42:54.202Z,49.00
2019-01-29T02:45:25.530Z,49.20
2019-01-29T02:47:56.113Z,55.13
2019-01-29T02:50:26.928Z,54.03
2019-01-29T02:52:57.548Z,53.50
2019-01-29T02:55:28.386Z,56.73
2019-01-29T02:57:59.277Z,53.90
2019-01-29T03:00:30.056Z,58.40
2019-01-29T03:03:00.517Z,50.17
2019-01-29T03:05:31.399Z,59.70
2019-01-29T03:08:02.017Z,59.40
2019-01-29T03:10:32.711Z,78.63
2019-01-29T03:13:03.657Z,64.60
2019-01-29T03:15:34.745Z,60.60
2019-01-29T03:18:05.717Z,55.40
2019-01-29T03:20:36.594Z,52.03
2019-01-29T03:23:07.211Z,54.17
2019-01-29T03:25:37.738Z,55.70
2019-01-29T03:28:08.759Z,54.50
2019-01-29T03:30:39.468Z,58.40
2019-01-29T03:33:10.113Z,56.20
2019-01-29T03:35:41.038Z,55.77
2019-01-29T03:38:11.674Z,63.17
2019-01-29T03:40:42.199Z,58.67
2019-01-29T03:43:12.807Z,60.83
2019-01-29T03:45:43.670Z,57.67
2019-01-29T03:48:14.282Z,57.03
2019-01-29T03:50:44.967Z,58.70
2019-01-29T03:53:15.578Z,58.77
2019-01-29T03:55:46.388Z,55.83
2019-01-29T03:58:17.018Z,56.70
2019-01-29T04:00:48.001Z,57.80
2019-01-29T04:03:18.516Z,58.07
2019-01-29T04:05:49.328Z,55.43
2019-01-29T04:08:19.982Z,56.70
2019-01-29T04:10:50.492Z,65.73
2019-01-29T04:13:21.185Z,61.43
2019-01-29T04:15:51.999Z,80.40
2019-01-29T04:18:22.676Z,74.93
2019-01-29T04:20:53.286Z,102.73
2019-01-29T04:23:23.791Z,91.43
2019-01-29T04:25:54.302Z,95.47
2019-01-29T04:28:25.121Z,85.87
2019-01-29T04:30:55.729Z,92.63
2019-01-29T04:33:26.326Z,68.73
2019-01-29T04:35:57.096Z,99.03
2019-01-29T04:38:27.671Z,72.00
2019-01-29T04:40:58.227Z,71.10
2019-01-29T04:43:28.819Z,76.47
2019-01-29T04:45:59.372Z,110.80
2019-01-29T04:48:30.167Z,98.57
2019-01-29T04:51:00.907Z,96.53
2019-01-29T04:53:31.642Z,81.23
2019-01-29T04:56:02.382Z,85.43
2019-01-29T04:58:33.154Z,75.50
2019-01-29T05:01:04.043Z,61.93
2019-01-29T05:03:34.571Z,60.50
2019-01-29T05:06:05.437Z,72.03
2019-01-29T05:08:36.316Z,82.27
2019-01-29T05:11:06.938Z,50.53
2019-01-29T05:13:37.520Z,50.00
2019-01-29T05:16:08.421Z,60.57
2019-01-29T05:18:39.144Z,58.97
2019-01-29T05:21:10.014Z,67.57
2019-01-29T05:23:40.609Z,55.30
2019-01-29T05:26:11.388Z,68.73
2019-01-29T05:28:42.070Z,72.93
2019-01-29T05:31:12.762Z,63.20
2019-01-29T05:33:43.380Z,55.87
2019-01-29T05:36:14.375Z,58.27
2019-01-29T05:38:45.006Z,55.80
2019-01-29T05:41:15.531Z,59.33
2019-01-29T05:43:46.402Z,53.43
2019-01-29T05:46:17.057Z,53.47
2019-01-29T05:48:47.876Z,54.00
2019-01-29T05:51:18.588Z,49.03
2019-01-29T05:53:49.091Z,51.13
2019-01-29T05:56:19.647Z,49.33
2019-01-29T05:58:50.597Z,50.17
2019-01-29T06:01:21.343Z,48.80
2019-01-29T06:03:51.867Z,50.97
2019-01-29T06:06:22.523Z,56.30
2019-01-29T06:08:53.134Z,54.97
2019-01-29T06:11:23.621Z,55.23
2019-01-29T06:13:54.169Z,55.20
2019-01-29T06:16:24.825Z,56.40
2019-01-29T06:18:55.714Z,60.40
2019-01-29T06:21:26.450Z,48.27
2019-01-29T06:23:56.955Z,42.07
2019-01-29T06:26:27.809Z,43.03
2019-01-29T06:28:58.579Z,47.43
2019-01-29T06:31:29.398Z,49.93
2019-01-29T06:33:59.971Z,47.03
2019-01-29T06:36:30.957Z,54.20
2019-01-29T06:39:01.770Z,50.10
2019-01-29T06:41:32.272Z,59.70
2019-01-29T06:44:02.859Z,51.33
2019-01-29T06:46:33.521Z,58.40
2019-01-29T06:49:04.248Z,56.73
2019-01-29T06:51:36.542Z,59.40
2019-01-29T06:54:07.178Z,54.50
2019-01-29T06:56:37.836Z,59.60
2019-01-29T06:59:08.611Z,58.80
2019-01-29T07:01:39.453Z,71.43
2019-01-29T07:04:10.116Z,84.80
2019-01-29T07:06:40.867Z,117.80
2019-01-29T07:09:12.064Z,117.83
2019-01-29T07:11:42.701Z,97.30
2019-01-29T07:14:13.252Z,80.13
2019-01-29T07:16:51.260Z,64.40
2019-01-29T07:19:34.807Z,74.07
2019-01-29T07:22:06.600Z,60.17
2019-01-29T07:24:42.781Z,69.03
2019-01-29T07:27:09.645Z,77.57
2019-01-29T07:29:40.504Z,62.80
2019-01-29T07:32:11.283Z,81.67
2019-01-29T07:34:42.031Z,69.17
2019-01-29T07:37:12.696Z,67.67
2019-01-29T07:39:43.604Z,59.13
2019-01-29T07:42:14.147Z,60.00
2019-01-29T07:44:45.087Z,61.37
2019-01-29T07:47:16.032Z,59.20
2019-01-29T07:49:47.024Z,63.37
2019-01-29T07:52:17.816Z,73.63
2019-01-29T07:54:51.294Z,68.03
2019-01-29T07:57:20.920Z,71.40
2019-01-29T07:59:51.618Z,53.87
2019-01-29T08:02:22.258Z,56.63
2019-01-29T08:04:52.766Z,53.70
2019-01-29T08:07:23.433Z,54.07
2019-01-29T08:09:54.181Z,50.83
2019-01-29T08:12:24.803Z,50.23
2019-01-29T08:14:55.664Z,39.67
2019-01-29T08:17:26.386Z,41.10
2019-01-29T08:19:57.185Z,40.57
2019-01-29T08:22:27.870Z,39.97
2019-01-29T08:25:01.805Z,40.43
2019-01-29T08:27:30.842Z,39.90
2019-01-29T08:30:01.438Z,40.27
2019-01-29T08:32:32.099Z,41.90
2019-01-29T08:35:03.005Z,39.40
2019-01-29T08:37:33.771Z,43.27
2019-01-29T08:40:04.844Z,40.83
2019-01-29T08:42:35.388Z,44.57
2019-01-29T08:45:07.256Z,46.77
2019-01-29T08:47:56.989Z,43.87
2019-01-29T08:50:28.196Z,42.07
2019-01-29T08:52:58.830Z,42.90
2019-01-29T08:55:29.545Z,42.20
2019-01-29T08:58:00.241Z,40.33
2019-01-29T09:00:31.184Z,41.10
2019-01-29T09:03:01.753Z,37.80
2019-01-29T09:05:32.357Z,38.43
2019-01-29T09:08:02.922Z,33.63
2019-01-29T09:10:33.709Z,36.73
2019-01-29T09:13:04.402Z,38.37
2019-01-29T09:15:35.334Z,35.67
2019-01-29T09:18:06.354Z,38.63
2019-01-29T09:20:37.089Z,36.70
2019-01-29T09:23:07.575Z,35.90
2019-01-29T09:25:38.282Z,34.23
2019-01-29T09:28:08.938Z,35.27
2019-01-29T09:30:39.880Z,36.60
2019-01-29T09:33:10.597Z,37.87
2019-01-29T09:35:41.221Z,36.80
2019-01-29T09:38:11.904Z,37.27
2019-01-29T09:40:42.621Z,36.97
2019-01-29T09:43:13.535Z,38.63
2019-01-29T09:45:44.221Z,36.73
2019-01-29T09:48:15.124Z,37.97
2019-01-29T09:50:46.067Z,39.40
2019-01-29T09:53:16.841Z,39.17
2019-01-29T09:55:47.576Z,40.27
2019-01-29T09:58:18.146Z,44.00
2019-01-29T10:00:49.079Z,50.40
2019-01-29T10:03:19.636Z,53.83
2019-01-29T10:05:50.366Z,52.37
2019-01-29T10:08:20.974Z,54.70
2019-01-29T10:10:51.816Z,55.43
2019-01-29T10:13:22.411Z,49.63
2019-01-29T10:15:53.332Z,54.17
2019-01-29T10:18:24.244Z,55.47
2019-01-29T10:20:55.080Z,56.27
2019-01-29T10:23:25.616Z,54.47
2019-01-29T10:25:56.171Z,54.97
2019-01-29T10:28:26.804Z,52.37
2019-01-29T10:30:57.589Z,50.43
2019-01-29T10:33:28.351Z,47.47
2019-01-29T10:35:59.462Z,53.47
2019-01-29T10:38:30.143Z,51.47
2019-01-29T10:41:00.901Z,50.63
2019-01-29T10:43:31.727Z,48.10
2019-01-29T10:46:02.523Z,49.50
2019-01-29T10:48:33.438Z,51.47
2019-01-29T10:51:04.574Z,50.40
2019-01-29T10:53:35.424Z,49.57
2019-01-29T10:56:06.459Z,48.53
2019-01-29T10:58:37.182Z,53.37
2019-01-29T11:01:08.143Z,51.73
2019-01-29T11:03:38.813Z,50.53
2019-01-29T11:06:09.345Z,53.00
2019-01-29T11:08:41.410Z,57.70
2019-01-29T11:11:12.035Z,56.60
2019-01-29T11:13:42.583Z,54.33
2019-01-29T11:16:13.166Z,57.60
2019-01-29T11:18:43.831Z,54.80
2019-01-29T11:21:14.441Z,57.40
2019-01-29T11:23:45.101Z,56.70
2019-01-29T11:26:15.759Z,49.13
2019-01-29T11:28:46.434Z,54.63
2019-01-29T11:31:17.061Z,48.10
2019-01-29T11:33:47.762Z,45.93
2019-01-29T11:36:23.617Z,49.53
2019-01-29T11:38:54.455Z,47.97
2019-01-29T11:41:25.197Z,50.37
2019-01-29T11:43:56.008Z,49.27
2019-01-29T11:46:26.807Z,56.37
2019-01-29T11:48:57.669Z,57.00
2019-01-29T11:51:28.539Z,50.80
2019-01-29T11:53:59.195Z,49.00
2019-01-29T11:56:30.115Z,51.53
2019-01-29T11:59:00.738Z,48.73
2019-01-29T12:01:31.636Z,47.90
2019-01-29T12:04:02.190Z,45.80
2019-01-29T12:06:33.021Z,48.63
2019-01-29T12:09:22.685Z,43.90
2019-01-29T12:11:53.302Z,47.97
2019-01-29T12:14:23.879Z,42.90
2019-01-29T12:16:54.914Z,46.70
2019-01-29T12:19:25.498Z,42.80
2019-01-29T12:21:56.065Z,42.93
2019-01-29T12:24:26.686Z,42.03
2019-01-29T12:26:57.559Z,42.73
2019-01-29T12:29:28.184Z,40.33
2019-01-29T12:31:58.996Z,42.83
2019-01-29T12:34:29.852Z,39.93
2019-01-29T12:37:00.527Z,41.20
2019-01-29T12:39:31.612Z,43.20
2019-01-29T12:42:02.145Z,40.67
2019-01-29T12:44:33.027Z,41.57
2019-01-29T12:47:03.722Z,39.43
2019-01-29T12:49:34.318Z,42.20
2019-01-29T12:52:22.000Z,41.20
2019-01-29T12:54:52.574Z,40.53
2019-01-29T12:57:23.285Z,40.10
2019-01-29T12:59:54.107Z,41.43
2019-01-29T13:02:24.616Z,39.77
2019-01-29T13:04:55.106Z,40.03
2019-01-29T13:07:25.719Z,42.67
2019-01-29T13:09:56.429Z,41.27
2019-01-29T13:12:26.938Z,39.37
2019-01-29T13:14:57.655Z,41.40
2019-01-29T13:17:28.583Z,42.43
2019-01-29T13:19:59.416Z,42.30
2019-01-29T13:22:30.100Z,45.80
2019-01-29T13:25:00.702Z,40.60
2019-01-29T13:27:31.649Z,40.50
2019-01-29T13:30:02.800Z,41.00
2019-01-29T13:32:33.877Z,38.90
2019-01-29T13:35:05.253Z,39.30
2019-01-29T13:37:35.981Z,40.90
2019-01-29T13:40:10.326Z,41.70
2019-01-29T13:42:41.056Z,41.13
2019-01-29T13:45:12.599Z,40.83
2019-01-29T13:47:43.435Z,40.03
2019-01-29T13:50:17.319Z,40.90
2019-01-29T13:52:48.230Z,40.90
2019-01-29T13:55:19.256Z,43.77
2019-01-29T13:57:50.425Z,41.97
2019-01-29T14:00:24.449Z,42.63
2019-01-29T14:02:55.091Z,40.43
2019-01-29T14:05:26.478Z,42.37
2019-01-29T14:07:57.219Z,42.30
2019-01-29T14:10:28.272Z,43.67
2019-01-29T14:12:59.921Z,43.47
2019-01-29T14:15:44.081Z,41.57
2019-01-29T14:18:15.818Z,43.47
2019-01-29T14:20:46.809Z,45.23
2019-01-29T14:23:17.492Z,45.80
2019-01-29T14:25:49.479Z,46.97
2019-01-29T14:28:20.518Z,47.70
2019-01-29T14:30:53.261Z,46.03
2019-01-29T14:33:23.738Z,46.90
2019-01-29T14:35:54.442Z,47.03
2019-01-29T14:39:20.872Z,46.63
2019-01-29T14:41:51.678Z,48.40
2019-01-29T14:44:25.347Z,46.13
2019-01-29T14:46:56.202Z,48.70
2019-01-29T14:49:26.975Z,49.13
2019-01-29T14:51:59.299Z,49.00
2019-01-29T14:54:30.159Z,51.37
2019-01-29T14:57:00.940Z,51.73
2019-01-29T14:59:31.665Z,51.80
2019-01-29T15:02:02.396Z,54.00
2019-01-29T15:04:33.009Z,53.70
2019-01-29T15:07:03.767Z,56.00
2019-01-29T15:09:34.569Z,55.50
2019-01-29T15:12:05.402Z,56.60
2019-01-29T15:14:36.203Z,58.03
2019-01-29T15:17:24.757Z,58.10
2019-01-29T15:19:55.337Z,57.73
2019-01-29T15:22:26.062Z,55.30
2019-01-29T15:24:56.603Z,55.57
2019-01-29T15:27:27.111Z,53.77
2019-01-29T15:29:57.717Z,56.53
2019-01-29T15:32:28.400Z,55.30
2019-01-29T15:34:59.060Z,56.17
2019-01-29T15:37:29.724Z,56.27
2019-01-29T15:40:00.291Z,55.33
2019-01-29T15:42:31.157Z,55.07
2019-01-29T15:45:01.802Z,53.40
2019-01-29T15:47:32.342Z,55.97
2019-01-29T15:50:02.945Z,54.73
2019-01-29T15:52:33.632Z,53.50
2019-01-29T15:55:04.916Z,55.50
2019-01-29T15:57:35.509Z,59.47
2019-01-29T16:00:08.944Z,55.57
2019-01-29T16:02:39.515Z,58.00
2019-01-29T16:05:13.089Z,56.20
2019-01-29T16:07:43.700Z,52.60
2019-01-29T16:10:17.846Z,53.17
2019-01-29T16:12:48.584Z,54.80
2019-01-29T16:15:20.728Z,54.47
2019-01-29T16:17:51.633Z,49.43
2019-01-29T16:20:22.841Z,52.67
2019-01-29T16:22:53.443Z,54.53
2019-01-29T16:25:25.365Z,54.97
2019-01-29T16:27:58.733Z,58.47
2019-01-29T16:30:29.538Z,56.90
2019-01-29T16:33:00.230Z,56.27
2019-01-29T16:35:32.325Z,58.43
2019-01-29T16:38:03.375Z,57.20
2019-01-29T16:40:34.366Z,53.63
2019-01-29T16:43:05.607Z,63.00
2019-01-29T16:45:36.599Z,65.77
2019-01-29T16:48:07.907Z,65.20
2019-01-29T16:50:38.548Z,60.33
2019-01-29T16:53:09.479Z,60.53
2019-01-29T16:55:39.999Z,62.50
2019-01-29T16:58:10.633Z,60.47
2019-01-29T17:00:41.856Z,62.87
2019-01-29T17:03:13.772Z,61.60
2019-01-29T17:05:44.474Z,54.07
2019-01-29T17:08:15.325Z,55.23
2019-01-29T17:10:45.907Z,56.00
2019-01-29T17:13:16.484Z,57.17
2019-01-29T17:15:47.253Z,53.00
2019-01-29T17:18:18.036Z,53.17
2019-01-29T17:20:48.810Z,56.23
2019-01-29T17:23:19.718Z,52.20
2019-01-29T17:25:51.043Z,50.60
2019-01-29T17:28:22.406Z,51.37
2019-01-29T17:30:53.310Z,51.87
2019-01-29T17:33:26.504Z,51.83
2019-01-29T17:35:57.472Z,64.87
2019-01-29T17:38:28.212Z,63.40
2019-01-29T17:40:59.178Z,54.07
2019-01-29T17:43:30.015Z,83.03
2019-01-29T17:46:01.264Z,52.27
2019-01-29T17:48:32.049Z,67.80
2019-01-29T17:51:02.771Z,56.40
2019-01-29T17:53:37.076Z,70.30
2019-01-29T17:56:06.962Z,77.10
2019-01-29T17:58:37.623Z,66.93
2019-01-29T18:01:09.503Z,63.37
2019-01-29T18:03:40.136Z,57.80
2019-01-29T18:06:10.787Z,57.77
2019-01-29T18:08:49.655Z,58.50
2019-01-29T18:11:13.936Z,55.70
2019-01-29T18:13:44.638Z,66.60
2019-01-29T18:16:16.051Z,62.20
2019-01-29T18:19:05.657Z,77.37
2019-01-29T18:21:36.601Z,111.77
2019-01-29T18:24:07.258Z,82.07
2019-01-29T18:26:38.048Z,66.13
2019-01-29T18:29:08.755Z,59.23
2019-01-29T18:31:39.409Z,60.37
2019-01-29T18:34:10.129Z,59.83
2019-01-29T18:36:40.701Z,58.10
2019-01-29T18:39:11.385Z,57.60
2019-01-29T18:41:42.342Z,84.33
2019-01-29T18:44:13.836Z,99.13
2019-01-29T18:46:44.694Z,68.07
2019-01-29T18:49:17.228Z,99.93
2019-01-29T18:51:47.797Z,109.43
2019-01-29T18:54:18.393Z,70.67
2019-01-29T18:56:49.092Z,74.20
2019-01-29T18:59:19.781Z,67.47
2019-01-29T19:01:50.371Z,52.20
2019-01-29T19:04:21.536Z,77.20
2019-01-29T19:06:52.301Z,85.83
2019-01-29T19:09:22.930Z,63.17
2019-01-29T19:11:53.911Z,67.57
2019-01-29T19:14:24.462Z,109.00
2019-01-29T19:16:55.094Z,107.70
2019-01-29T19:19:25.707Z,54.43
2019-01-29T19:21:56.639Z,118.40
2019-01-29T19:24:27.281Z,88.43
2019-01-29T19:26:57.940Z,73.67
2019-01-29T19:29:28.600Z,76.87
2019-01-29T19:31:59.292Z,65.03
2019-01-29T19:34:30.534Z,72.83
2019-01-29T19:37:03.109Z,90.87
2019-01-29T19:39:34.173Z,76.50
2019-01-29T19:42:04.666Z,78.57
2019-01-29T19:44:35.608Z,67.17
2019-01-29T19:47:06.441Z,89.03
2019-01-29T19:49:37.001Z,105.20
2019-01-29T19:52:07.584Z,64.70
2019-01-29T19:54:38.364Z,94.60
2019-01-29T19:57:08.959Z,124.43
2019-01-29T19:59:39.608Z,77.67
2019-01-29T20:02:10.760Z,98.47
2019-01-29T20:04:41.430Z,113.83
2019-01-29T20:07:12.130Z,125.53
2019-01-29T20:09:42.736Z,84.73
2019-01-29T20:12:13.405Z,119.90
2019-01-29T20:14:43.926Z,94.93
2019-01-29T20:17:14.521Z,82.30
2019-01-29T20:19:45.604Z,97.80
2019-01-29T20:22:16.237Z,98.90
2019-01-29T20:24:47.337Z,104.80
2019-01-29T20:27:18.092Z,92.50
2019-01-29T20:29:49.590Z,117.30
2019-01-29T20:32:20.463Z,105.07
2019-01-29T20:34:51.419Z,70.33
2019-01-29T20:37:22.285Z,65.87
2019-01-29T20:39:53.638Z,90.50
2019-01-29T20:42:24.568Z,79.73
2019-01-29T20:44:55.734Z,73.97
2019-01-29T20:47:30.392Z,59.50
2019-01-29T20:50:01.496Z,68.90
2019-01-29T20:52:32.872Z,89.87
2019-01-29T20:55:04.856Z,82.13
2019-01-29T20:57:35.719Z,56.93
2019-01-29T21:00:10.731Z,79.90
2019-01-29T21:02:41.561Z,73.93
2019-01-29T21:05:12.245Z,90.23
2019-01-29T21:07:43.190Z,105.93
2019-01-29T21:10:16.834Z,98.40
2019-01-29T21:12:47.852Z,108.77
2019-01-29T21:15:20.120Z,52.57
2019-01-29T21:17:50.822Z,85.50
2019-01-29T21:20:24.175Z,87.33
2019-01-29T21:22:54.887Z,54.23
2019-01-29T21:25:25.543Z,55.17
2019-01-29T21:27:56.345Z,54.50
2019-01-29T21:30:29.879Z,59.37
2019-01-29T21:33:00.942Z,77.80
2019-01-29T21:35:31.931Z,68.50
2019-01-29T21:38:02.970Z,75.10
2019-01-29T21:40:34.177Z,80.33
2019-01-29T21:43:04.954Z,66.33
2019-01-29T21:45:35.619Z,123.60
2019-01-29T21:48:07.129Z,88.27
2019-01-29T21:50:37.859Z,90.67
2019-01-29T21:53:10.142Z,52.63
2019-01-29T21:55:40.790Z,54.37
2019-01-29T21:58:11.696Z,84.30
2019-01-29T22:00:44.799Z,77.13
2019-01-29T22:03:16.491Z,60.60
2019-01-29T22:05:47.019Z,95.90
2019-01-29T22:08:17.892Z,125.37
2019-01-29T22:10:48.443Z,81.73
2019-01-29T22:13:18.944Z,67.13
2019-01-29T22:15:49.536Z,79.60
2019-01-29T22:18:20.066Z,85.20
2019-01-29T22:20:50.771Z,84.27
2019-01-29T22:23:21.372Z,100.30
2019-01-29T22:25:51.954Z,73.60
2019-01-29T22:28:22.577Z,63.00
2019-01-29T22:30:53.672Z,55.90
2019-01-29T22:33:24.174Z,68.23
2019-01-29T22:35:54.865Z,78.40
2019-01-29T22:38:25.564Z,73.60
2019-01-29T22:40:56.110Z,93.87
2019-01-29T22:43:26.626Z,73.23
2019-01-29T22:45:57.239Z,59.93
2019-01-29T22:48:27.998Z,74.37
2019-01-29T22:50:58.607Z,79.73
2019-01-29T22:53:29.410Z,73.43
2019-01-29T22:55:59.903Z,85.03
2019-01-29T22:58:30.538Z,94.77
2019-01-29T23:01:28.845Z,71.17
2019-01-29T23:04:19.582Z,67.03
2019-01-29T23:06:53.345Z,77.03
2019-01-29T23:09:24.115Z,78.57
2019-01-29T23:11:55.033Z,81.30
2019-01-29T23:14:25.564Z,100.53
2019-01-29T23:16:56.273Z,76.47
2019-01-29T23:19:26.836Z,81.33
2019-01-29T23:21:57.580Z,72.50
2019-01-29T23:24:28.196Z,61.30
2019-01-29T23:26:58.789Z,66.83
2019-01-29T23:29:30.976Z,99.93
2019-01-29T23:32:01.630Z,74.70
2019-01-29T23:34:32.263Z,100.00
2019-01-29T23:37:02.948Z,95.43
2019-01-29T23:39:33.526Z,103.13
2019-01-29T23:42:04.283Z,121.73
2019-01-29T23:44:36.800Z,76.30
2019-01-29T23:47:07.096Z,70.60
2019-01-29T23:49:39.453Z,103.27
2019-01-29T23:52:10.171Z,109.33
2019-01-29T23:54:40.857Z,79.23
2019-01-29T23:57:11.657Z,85.10
2019-01-29T23:59:42.226Z,110.77
